CheckWX is a tool to help pilots better visualize weather data.  It is not intended as a substitute for an official pre-flight weather briefing.

07:31:03 UTC

KFXE TAF
Fort Lauderdale Executive Airport
Fort Lauderdale, Florida, USA
KFXE 200521Z 2006/2106 12005KT P6SM SCT250 FM201400 11012KT P6SM VCSH SCT025 BKN050 PROB30 2015/2021 4SM TSRA BKN035CB FM210100 10005KT P6SM SCT035 SCT250

Aug-20@
06:00 UTC

Aug-20 @ 06:00 UTC

Aug-20@
14:00 UTC

Aug-20 @ 14:00 UTC

KFXE 200521Z 2006/2106 12005KT P6SM SCT250
Wind
  • 120° at 5 KTS
Cloud Levels
  • Scattered at 25,000' AGL

Aug-20@
14:00 UTC

Aug-20 @ 14:00 UTC

Aug-21@
01:00 UTC

Aug-21 @ 01:00 UTC

FM201400 11012KT P6SM VCSH SCT025 BKN050

From

From Standard forecast or significant change

Wind
  • 110° at 12 KTS
Cloud Levels
  • Scattered at 2,500' AGL
  • Broken at 5,000' AGL

Aug-20@
15:00 UTC

Aug-20 @ 15:00 UTC

Aug-20@
21:00 UTC

Aug-20 @ 21:00 UTC

PROB30 2015/2021 4SM TSRA BKN035CB

Probable - 30% Likelihood

Probable - 30% Likelihood during this time.

Conditions
Thunderstorm, Rain
Cloud Levels
  • Broken at 3,500' AGL

Aug-21@
01:00 UTC

Aug-21 @ 01:00 UTC

Aug-21@
06:00 UTC

Aug-21 @ 06:00 UTC

FM210100 10005KT P6SM SCT035 SCT250

From

From Standard forecast or significant change

Wind
  • 100° at 5 KTS
Cloud Levels
  • Scattered at 3,500' AGL
  • Scattered at 25,000' AGL